createdAt,value
2023-01-30T00:00:01.554Z,98.66
2023-01-30T00:00:34.109Z,98.76
2023-01-30T00:01:06.560Z,98.86
2023-01-30T00:01:39.039Z,98.86
2023-01-30T00:02:11.580Z,98.86
2023-01-30T00:02:44.127Z,98.86
2023-01-30T00:03:16.575Z,98.97
2023-01-30T00:03:49.079Z,98.97
2023-01-30T00:04:21.553Z,98.97
2023-01-30T00:04:54.113Z,98.97
2023-01-30T00:05:26.560Z,98.97
2023-01-30T00:05:59.067Z,98.86
2023-01-30T00:06:31.604Z,98.97
2023-01-30T00:07:04.046Z,99.07
2023-01-30T00:07:36.472Z,98.97
2023-01-30T00:08:08.941Z,98.97
2023-01-30T00:08:41.409Z,98.97
2023-01-30T00:09:13.881Z,98.97
2023-01-30T00:09:46.333Z,98.97
2023-01-30T00:10:19.297Z,99.07
2023-01-30T00:10:51.466Z,98.97
2023-01-30T00:11:23.896Z,99.07
2023-01-30T00:11:56.375Z,99.18
2023-01-30T00:12:28.825Z,99.07
2023-01-30T00:13:01.286Z,98.97
2023-01-30T00:13:33.737Z,98.97
2023-01-30T00:14:06.203Z,99.07
2023-01-30T00:14:38.660Z,99.07
2023-01-30T00:15:11.129Z,99.07
2023-01-30T00:15:43.597Z,98.97
2023-01-30T00:16:16.110Z,99.07
2023-01-30T00:16:48.525Z,99.07
2023-01-30T00:17:20.952Z,99.18
2023-01-30T00:17:53.427Z,99.07
2023-01-30T00:18:25.891Z,99.18
2023-01-30T00:18:58.350Z,99.07
2023-01-30T00:19:30.865Z,99.18
2023-01-30T00:20:03.317Z,99.28
2023-01-30T00:20:35.773Z,99.28
2023-01-30T00:21:08.224Z,99.28
2023-01-30T00:21:40.659Z,99.18
2023-01-30T00:22:13.106Z,99.28
2023-01-30T00:22:59.250Z,99.18
2023-01-30T00:23:18.010Z,99.28
2023-01-30T00:23:50.506Z,99.28
2023-01-30T00:24:23.203Z,99.28
2023-01-30T00:24:55.579Z,99.28
2023-01-30T00:25:28.009Z,99.28
2023-01-30T00:26:00.476Z,99.38
2023-01-30T00:26:32.925Z,99.49
2023-01-30T00:27:05.340Z,99.38
2023-01-30T00:27:37.737Z,99.28
2023-01-30T00:28:10.228Z,99.38
2023-01-30T00:28:42.594Z,99.38
2023-01-30T00:29:15.024Z,99.38
2023-01-30T00:29:57.752Z,99.38
2023-01-30T00:30:20.112Z,99.38
2023-01-30T00:30:52.412Z,99.49
2023-01-30T00:31:24.863Z,99.49
2023-01-30T00:31:57.455Z,99.59
2023-01-30T00:32:29.821Z,99.59
2023-01-30T00:33:02.245Z,99.59
2023-01-30T00:33:34.672Z,99.59
2023-01-30T00:34:07.199Z,99.65
2023-01-30T00:34:39.637Z,99.70
2023-01-30T00:35:12.146Z,99.65
2023-01-30T00:35:45.922Z,99.55
2023-01-30T00:36:17.114Z,99.59
2023-01-30T00:36:58.839Z,99.55
2023-01-30T00:37:22.041Z,99.59
2023-01-30T00:37:54.588Z,99.44
2023-01-30T00:38:27.811Z,99.44
2023-01-30T00:39:00.226Z,99.65
2023-01-30T00:39:32.719Z,99.76
2023-01-30T00:40:05.180Z,99.65
2023-01-30T00:40:37.636Z,99.44
2023-01-30T00:41:10.089Z,99.34
2023-01-30T00:41:42.566Z,99.44
2023-01-30T00:42:15.153Z,99.55
2023-01-30T00:42:47.580Z,99.55
2023-01-30T00:43:20.041Z,99.55
2023-01-30T00:43:52.515Z,99.55
2023-01-30T00:44:24.961Z,99.65
2023-01-30T00:44:57.473Z,99.76
2023-01-30T00:45:30.003Z,99.86
2023-01-30T00:46:02.418Z,99.86
2023-01-30T00:46:34.831Z,99.76
2023-01-30T00:47:07.258Z,99.86
2023-01-30T00:47:39.717Z,99.96
2023-01-30T00:48:12.139Z,99.96
2023-01-30T00:48:44.607Z,99.99
2023-01-30T00:49:17.053Z,99.99
2023-01-30T00:49:49.490Z,99.99
2023-01-30T00:50:21.925Z,99.99
2023-01-30T00:50:54.380Z,99.99
2023-01-30T00:51:26.854Z,99.99
2023-01-30T00:51:59.283Z,99.99
2023-01-30T00:52:31.732Z,99.99
2023-01-30T00:53:04.175Z,99.99
2023-01-30T00:53:36.608Z,99.99
2023-01-30T00:54:09.083Z,99.99
2023-01-30T00:54:41.539Z,99.99
2023-01-30T00:55:14.077Z,99.99
2023-01-30T00:55:46.544Z,99.99
2023-01-30T00:56:18.988Z,99.99
2023-01-30T00:56:51.507Z,99.99
2023-01-30T00:57:23.934Z,99.99
2023-01-30T00:57:56.377Z,99.99
2023-01-30T00:58:28.848Z,99.99
2023-01-30T00:59:01.301Z,99.99
2023-01-30T00:59:33.782Z,99.99
2023-01-30T01:00:06.309Z,99.99
2023-01-30T01:00:38.778Z,99.99
2023-01-30T01:01:11.237Z,99.99
2023-01-30T01:01:43.690Z,99.99
2023-01-30T01:02:16.161Z,99.99
2023-01-30T01:02:48.607Z,99.99
2023-01-30T01:03:21.075Z,99.99
2023-01-30T01:03:53.529Z,99.99
2023-01-30T01:04:25.994Z,99.99
2023-01-30T01:04:58.452Z,99.99
2023-01-30T01:05:30.889Z,99.99
2023-01-30T01:06:03.389Z,99.99
2023-01-30T01:06:35.849Z,99.99
2023-01-30T01:07:08.308Z,99.99
2023-01-30T01:07:40.780Z,99.99
2023-01-30T01:08:13.246Z,99.99
2023-01-30T01:08:45.750Z,99.99
2023-01-30T01:09:18.142Z,99.99
2023-01-30T01:09:50.597Z,99.99
2023-01-30T01:10:23.075Z,99.99
2023-01-30T01:10:55.551Z,99.99
2023-01-30T01:11:27.999Z,99.99
2023-01-30T01:12:00.447Z,99.99
2023-01-30T01:12:32.908Z,99.99
2023-01-30T01:13:05.366Z,99.99
2023-01-30T01:13:37.856Z,99.99
2023-01-30T01:14:10.304Z,99.99
2023-01-30T01:14:42.748Z,99.99
2023-01-30T01:15:16.111Z,99.99
2023-01-30T01:15:48.343Z,99.99
2023-01-30T01:16:20.861Z,99.99
2023-01-30T01:16:53.339Z,99.99
2023-01-30T01:17:25.809Z,99.99
2023-01-30T01:17:58.353Z,99.99
2023-01-30T01:18:30.794Z,99.99
2023-01-30T01:19:03.253Z,99.99
2023-01-30T01:19:35.703Z,99.99
2023-01-30T01:20:08.197Z,99.99
2023-01-30T01:20:40.708Z,99.99
2023-01-30T01:21:13.171Z,99.99
2023-01-30T01:21:45.618Z,99.99
2023-01-30T01:22:18.064Z,99.99
2023-01-30T01:22:50.548Z,99.99
2023-01-30T01:23:22.960Z,99.99
2023-01-30T01:23:55.429Z,99.99
2023-01-30T01:24:27.896Z,99.99
2023-01-30T01:25:00.320Z,99.99
2023-01-30T01:25:32.798Z,99.99
2023-01-30T01:26:05.257Z,99.99
2023-01-30T01:26:37.771Z,99.99
2023-01-30T01:27:10.192Z,99.99
2023-01-30T01:27:42.659Z,99.99
2023-01-30T01:28:15.142Z,99.99
2023-01-30T01:28:47.590Z,99.99
2023-01-30T01:29:20.036Z,99.99
2023-01-30T01:29:52.472Z,99.99
2023-01-30T01:30:24.921Z,99.99
2023-01-30T01:30:57.388Z,99.99
2023-01-30T01:31:29.948Z,99.99
2023-01-30T01:32:02.287Z,99.99
2023-01-30T01:32:34.714Z,99.99
2023-01-30T01:33:07.140Z,99.99
2023-01-30T01:33:39.634Z,99.99
2023-01-30T01:34:12.158Z,99.99
2023-01-30T01:34:44.661Z,99.99
2023-01-30T01:35:17.479Z,99.99
2023-01-30T01:35:49.699Z,99.99
2023-01-30T01:36:49.752Z,99.99
2023-01-30T01:36:54.975Z,99.99
2023-01-30T01:37:27.261Z,99.99
2023-01-30T01:37:59.681Z,99.99
2023-01-30T01:38:32.169Z,99.99
2023-01-30T01:39:04.607Z,99.99
2023-01-30T01:39:37.046Z,99.99
2023-01-30T01:40:09.535Z,99.99
2023-01-30T01:40:42.013Z,99.99
2023-01-30T01:41:14.446Z,99.99
2023-01-30T01:41:46.888Z,99.99
2023-01-30T01:42:19.330Z,99.99
2023-01-30T01:42:51.784Z,99.99
2023-01-30T01:43:24.188Z,99.99
2023-01-30T01:43:56.635Z,99.99
2023-01-30T01:44:29.062Z,99.99
2023-01-30T01:45:01.500Z,99.99
2023-01-30T01:45:33.993Z,99.99
2023-01-30T01:46:06.508Z,99.99
2023-01-30T01:46:38.937Z,99.99
2023-01-30T01:47:11.407Z,99.99
2023-01-30T01:47:43.953Z,99.99
2023-01-30T01:48:16.451Z,99.99
2023-01-30T01:48:49.023Z,99.99
2023-01-30T01:49:21.474Z,99.99
2023-01-30T01:49:53.953Z,99.99
2023-01-30T01:50:26.439Z,99.99
2023-01-30T01:50:58.885Z,99.99
2023-01-30T01:51:31.409Z,99.99
2023-01-30T01:52:04.035Z,99.99
2023-01-30T01:52:36.548Z,99.99
2023-01-30T01:53:09.024Z,99.99
2023-01-30T01:53:41.728Z,99.99
2023-01-30T01:54:14.445Z,99.99
2023-01-30T01:54:46.899Z,99.99
2023-01-30T01:55:19.688Z,99.99
2023-01-30T01:55:51.855Z,99.99
2023-01-30T01:56:24.315Z,99.99
2023-01-30T01:56:56.822Z,99.99
2023-01-30T01:57:29.236Z,99.99
2023-01-30T01:58:01.693Z,99.99
2023-01-30T01:58:34.128Z,99.99
2023-01-30T01:59:06.607Z,99.99
2023-01-30T01:59:39.101Z,99.99
2023-01-30T02:00:11.573Z,99.99
2023-01-30T02:00:44.048Z,99.99
2023-01-30T02:01:16.564Z,99.99
2023-01-30T02:01:48.967Z,99.99
2023-01-30T02:02:21.475Z,99.99
2023-01-30T02:02:53.865Z,99.99
2023-01-30T02:03:26.311Z,99.99
2023-01-30T02:03:58.764Z,99.99
2023-01-30T02:04:31.214Z,99.99
2023-01-30T02:05:03.671Z,99.99
2023-01-30T02:05:36.122Z,99.99
2023-01-30T02:06:08.633Z,99.99
2023-01-30T02:06:41.120Z,99.99
2023-01-30T02:07:13.601Z,99.99
2023-01-30T02:07:46.034Z,99.99
2023-01-30T02:08:18.514Z,99.99
2023-01-30T02:08:50.991Z,99.99
2023-01-30T02:09:23.489Z,99.99
2023-01-30T02:09:56.000Z,99.99
2023-01-30T02:10:28.507Z,99.99
2023-01-30T02:11:00.989Z,99.99
2023-01-30T02:11:33.446Z,99.99
2023-01-30T02:12:05.913Z,99.99
2023-01-30T02:12:38.418Z,99.99
2023-01-30T02:13:10.892Z,99.99
2023-01-30T02:13:43.370Z,99.99
2023-01-30T02:14:15.876Z,99.99
2023-01-30T02:14:48.357Z,99.99
2023-01-30T02:15:20.839Z,99.99
2023-01-30T02:15:53.304Z,99.99
2023-01-30T02:16:25.771Z,99.99
2023-01-30T02:16:58.222Z,99.99
2023-01-30T02:17:30.736Z,99.99
2023-01-30T02:18:03.225Z,99.99
2023-01-30T02:18:35.723Z,99.99
2023-01-30T02:19:08.161Z,99.99
2023-01-30T02:19:40.640Z,99.99
2023-01-30T02:20:13.100Z,99.99
2023-01-30T02:20:45.567Z,99.99
2023-01-30T02:21:17.996Z,99.99
2023-01-30T02:21:50.456Z,99.99
2023-01-30T02:22:22.919Z,99.99
2023-01-30T02:22:55.544Z,99.99
2023-01-30T02:23:27.998Z,99.99
2023-01-30T02:24:00.545Z,99.99
2023-01-30T02:24:33.005Z,99.99
2023-01-30T02:25:05.484Z,99.99
2023-01-30T02:25:37.934Z,99.99
2023-01-30T02:26:10.420Z,99.99
2023-01-30T02:26:43.047Z,99.99
2023-01-30T02:27:15.466Z,99.99
2023-01-30T02:27:47.928Z,99.99
2023-01-30T02:28:20.379Z,99.99
2023-01-30T02:28:52.836Z,99.99
2023-01-30T02:29:25.293Z,99.99
2023-01-30T02:29:57.782Z,99.99
2023-01-30T02:30:30.387Z,99.99
2023-01-30T02:31:02.832Z,99.99
2023-01-30T02:31:35.399Z,99.99
2023-01-30T02:32:07.675Z,99.99
2023-01-30T02:32:40.126Z,99.99
2023-01-30T02:33:12.655Z,99.99
2023-01-30T02:33:45.133Z,99.99
2023-01-30T02:34:17.700Z,99.99
2023-01-30T02:34:50.218Z,99.99
2023-01-30T02:35:22.704Z,99.99
2023-01-30T02:35:55.235Z,99.99
2023-01-30T02:36:27.769Z,99.99
2023-01-30T02:37:00.360Z,99.99
2023-01-30T02:37:32.884Z,99.99
2023-01-30T02:38:05.384Z,99.99
2023-01-30T02:38:37.914Z,99.99
2023-01-30T02:39:10.421Z,99.99
2023-01-30T02:39:42.951Z,99.99
2023-01-30T02:40:15.504Z,99.99
2023-01-30T02:40:47.938Z,99.99
2023-01-30T02:41:20.386Z,99.99
2023-01-30T02:41:52.884Z,99.99
2023-01-30T02:42:25.324Z,99.99
2023-01-30T02:42:57.773Z,99.99
2023-01-30T02:43:30.243Z,99.99
2023-01-30T02:44:02.805Z,99.99
2023-01-30T02:44:35.255Z,99.99
2023-01-30T02:45:07.856Z,99.99
2023-01-30T02:45:40.432Z,99.99
2023-01-30T02:46:12.916Z,99.99
2023-01-30T02:46:45.419Z,99.99
2023-01-30T02:47:17.922Z,99.99
2023-01-30T02:47:50.391Z,99.99
2023-01-30T02:48:22.856Z,99.99
2023-01-30T02:48:55.315Z,99.99
2023-01-30T02:49:27.788Z,99.99
2023-01-30T02:50:00.257Z,99.99
2023-01-30T02:50:32.730Z,99.99
2023-01-30T02:51:05.195Z,99.99
2023-01-30T02:51:37.702Z,99.99
2023-01-30T02:52:10.315Z,99.99
2023-01-30T02:52:42.826Z,99.99
2023-01-30T02:53:15.346Z,99.99
2023-01-30T02:53:47.805Z,99.99
2023-01-30T02:54:20.281Z,99.99
2023-01-30T02:54:52.737Z,99.99
2023-01-30T02:55:25.214Z,99.99
2023-01-30T02:55:57.659Z,99.99
2023-01-30T02:56:30.115Z,99.99
2023-01-30T02:57:02.608Z,99.99
2023-01-30T02:57:35.465Z,99.99
2023-01-30T02:58:07.958Z,99.99
2023-01-30T02:58:40.425Z,99.99
2023-01-30T02:59:12.878Z,99.99
2023-01-30T02:59:45.308Z,99.99
2023-01-30T03:00:17.751Z,99.99
2023-01-30T03:00:50.236Z,99.99
2023-01-30T03:01:22.746Z,99.99
2023-01-30T03:01:55.147Z,99.99
2023-01-30T03:02:27.704Z,99.99
2023-01-30T03:03:00.139Z,99.99
2023-01-30T03:03:32.593Z,99.99
2023-01-30T03:04:05.091Z,99.99
2023-01-30T03:04:37.614Z,99.99
2023-01-30T03:05:10.106Z,99.99
2023-01-30T03:05:42.649Z,99.99
2023-01-30T03:06:15.095Z,99.99
2023-01-30T03:06:47.599Z,99.99
2023-01-30T03:07:20.055Z,99.99
2023-01-30T03:07:52.523Z,99.99
2023-01-30T03:08:24.972Z,99.99
2023-01-30T03:08:57.443Z,99.99
2023-01-30T03:09:29.958Z,99.99
2023-01-30T03:10:02.404Z,99.99
2023-01-30T03:10:34.884Z,99.99
2023-01-30T03:11:07.301Z,99.99
2023-01-30T03:11:39.773Z,99.99
2023-01-30T03:12:12.223Z,99.99
2023-01-30T03:12:44.666Z,99.99
2023-01-30T03:13:17.120Z,99.99
2023-01-30T03:13:49.571Z,99.99
2023-01-30T03:14:22.023Z,99.99
2023-01-30T03:14:54.548Z,99.99
2023-01-30T03:15:26.999Z,99.99
2023-01-30T03:15:59.490Z,99.99
2023-01-30T03:16:31.903Z,99.99
2023-01-30T03:17:04.341Z,99.99
2023-01-30T03:17:36.797Z,99.99
2023-01-30T03:18:09.273Z,99.99
2023-01-30T03:18:41.728Z,99.99
2023-01-30T03:19:14.199Z,99.99
2023-01-30T03:19:46.778Z,99.99
2023-01-30T03:20:19.204Z,99.99
2023-01-30T03:20:51.673Z,99.99
2023-01-30T03:21:24.232Z,99.99
2023-01-30T03:21:56.698Z,99.99
2023-01-30T03:22:29.253Z,99.99
2023-01-30T03:23:01.735Z,99.99
2023-01-30T03:23:34.181Z,99.99
2023-01-30T03:24:06.664Z,99.99
2023-01-30T03:24:39.127Z,99.99
2023-01-30T03:25:11.607Z,99.99
2023-01-30T03:25:44.010Z,99.99
2023-01-30T03:26:16.496Z,99.99
2023-01-30T03:26:48.921Z,99.99
2023-01-30T03:27:21.376Z,99.99
2023-01-30T03:27:53.821Z,99.99
2023-01-30T03:28:26.250Z,99.99
2023-01-30T03:28:58.695Z,99.99
2023-01-30T03:29:31.141Z,99.99
2023-01-30T03:30:03.587Z,99.99
2023-01-30T03:30:36.103Z,99.99
2023-01-30T03:31:08.611Z,99.99
2023-01-30T03:31:41.151Z,99.99
2023-01-30T03:32:13.459Z,99.99
2023-01-30T03:32:45.908Z,99.99
2023-01-30T03:33:19.316Z,99.99
2023-01-30T03:33:51.751Z,99.99
2023-01-30T03:34:24.273Z,99.99
2023-01-30T03:34:56.691Z,99.99
2023-01-30T03:35:29.119Z,99.99
2023-01-30T03:36:01.631Z,99.99
2023-01-30T03:36:34.180Z,99.99
2023-01-30T03:37:06.639Z,99.99
2023-01-30T03:37:39.226Z,99.99
2023-01-30T03:38:11.678Z,99.99
2023-01-30T03:38:44.120Z,99.99
2023-01-30T03:39:16.623Z,99.99
2023-01-30T03:39:49.115Z,99.99
2023-01-30T03:40:21.597Z,99.99
2023-01-30T03:40:54.029Z,99.99
2023-01-30T03:41:26.493Z,99.99
2023-01-30T03:41:58.954Z,99.99
2023-01-30T03:42:31.433Z,99.99
2023-01-30T03:43:03.962Z,99.99
2023-01-30T03:43:36.374Z,99.99
2023-01-30T03:44:08.893Z,99.99
2023-01-30T03:44:41.322Z,99.99
2023-01-30T03:45:13.812Z,99.99
2023-01-30T03:45:46.279Z,99.99
2023-01-30T03:46:18.727Z,99.99
2023-01-30T03:46:51.130Z,99.99
2023-01-30T03:47:23.596Z,99.99
2023-01-30T03:47:56.013Z,99.99
2023-01-30T03:48:28.447Z,99.99
2023-01-30T03:49:00.896Z,99.99
2023-01-30T03:49:33.342Z,99.99
2023-01-30T03:50:05.793Z,99.99
2023-01-30T03:50:38.272Z,99.99
2023-01-30T03:51:10.722Z,99.99
2023-01-30T03:51:43.179Z,99.99
2023-01-30T03:52:15.625Z,99.99
2023-01-30T03:52:48.089Z,99.99
2023-01-30T03:53:20.691Z,99.99
2023-01-30T03:53:53.154Z,99.99
2023-01-30T03:54:25.576Z,99.99
2023-01-30T03:54:58.113Z,99.99
2023-01-30T03:55:30.648Z,99.99
2023-01-30T03:56:03.163Z,99.99
2023-01-30T03:56:35.552Z,99.99
2023-01-30T03:57:07.989Z,99.99
2023-01-30T03:57:40.545Z,99.99
2023-01-30T03:58:13.023Z,99.99
2023-01-30T03:58:45.503Z,99.99
2023-01-30T03:59:17.966Z,99.99
2023-01-30T03:59:50.433Z,99.99
2023-01-30T04:00:22.920Z,99.99
2023-01-30T04:00:56.049Z,99.99
2023-01-30T04:01:27.879Z,99.99
2023-01-30T04:02:00.301Z,99.99
2023-01-30T04:02:32.854Z,99.99
2023-01-30T04:03:05.262Z,99.99
2023-01-30T04:03:37.793Z,99.99
2023-01-30T04:04:10.224Z,99.99
2023-01-30T04:04:42.654Z,99.99
2023-01-30T04:05:15.356Z,99.99
2023-01-30T04:05:47.575Z,99.99
2023-01-30T04:06:20.039Z,99.99
2023-01-30T04:06:52.610Z,99.99
2023-01-30T04:07:25.100Z,99.99
2023-01-30T04:07:57.607Z,99.99
2023-01-30T04:08:30.112Z,99.99
2023-01-30T04:09:02.598Z,99.99
2023-01-30T04:09:35.135Z,99.99
2023-01-30T04:10:07.553Z,99.99
2023-01-30T04:10:40.095Z,99.99
2023-01-30T04:11:12.576Z,99.99
2023-01-30T04:11:45.054Z,99.99
2023-01-30T04:12:17.540Z,99.99
2023-01-30T04:12:49.985Z,99.99
2023-01-30T04:13:22.441Z,99.99
2023-01-30T04:13:54.932Z,99.99
2023-01-30T04:14:27.393Z,99.99
2023-01-30T04:14:59.883Z,99.99
2023-01-30T04:15:32.361Z,99.99
2023-01-30T04:16:04.828Z,99.99
2023-01-30T04:16:37.318Z,99.99
2023-01-30T04:17:09.770Z,99.99
2023-01-30T04:17:42.213Z,99.99
2023-01-30T04:18:14.661Z,99.99
2023-01-30T04:18:47.111Z,99.99
2023-01-30T04:19:19.543Z,99.99
2023-01-30T04:19:52.067Z,99.99
2023-01-30T04:20:24.518Z,99.99
2023-01-30T04:20:57.039Z,99.99
2023-01-30T04:21:29.478Z,99.99
2023-01-30T04:22:01.929Z,99.99
2023-01-30T04:22:35.125Z,99.99
2023-01-30T04:23:07.655Z,99.99
2023-01-30T04:23:40.192Z,99.99
2023-01-30T04:24:12.666Z,99.99
2023-01-30T04:24:45.144Z,99.99
2023-01-30T04:25:17.841Z,99.99
2023-01-30T04:25:50.080Z,99.99
2023-01-30T04:26:22.527Z,99.99
2023-01-30T04:26:54.988Z,99.99
2023-01-30T04:27:27.433Z,99.99
2023-01-30T04:27:59.910Z,99.99
2023-01-30T04:28:32.374Z,99.99
2023-01-30T04:29:04.817Z,99.99
2023-01-30T04:29:37.253Z,99.99
2023-01-30T04:30:09.696Z,99.99
2023-01-30T04:30:42.200Z,99.99
2023-01-30T04:31:14.632Z,99.99
2023-01-30T04:31:47.042Z,99.99
2023-01-30T04:32:19.497Z,99.99
2023-01-30T04:32:51.952Z,99.99
2023-01-30T04:33:24.506Z,99.99
2023-01-30T04:33:57.009Z,99.99
2023-01-30T04:34:29.456Z,99.99
2023-01-30T04:35:01.895Z,99.99
2023-01-30T04:35:34.359Z,99.99
2023-01-30T04:36:06.833Z,99.99
2023-01-30T04:36:39.281Z,99.99
2023-01-30T04:37:11.798Z,99.99
2023-01-30T04:37:44.310Z,99.99
2023-01-30T04:38:16.835Z,99.99
2023-01-30T04:38:49.270Z,99.99
2023-01-30T04:39:22.210Z,99.99
2023-01-30T04:39:54.213Z,99.99
2023-01-30T04:40:26.625Z,99.99
2023-01-30T04:40:59.180Z,99.99
2023-01-30T04:41:31.623Z,99.99
2023-01-30T04:42:04.064Z,99.99
2023-01-30T04:42:36.642Z,99.99
2023-01-30T04:43:09.101Z,99.99
2023-01-30T04:43:41.565Z,99.99
2023-01-30T04:44:14.033Z,99.99
2023-01-30T04:44:46.477Z,99.99
2023-01-30T04:45:19.198Z,99.99
2023-01-30T04:45:51.410Z,99.99
2023-01-30T04:46:23.886Z,99.99
2023-01-30T04:46:56.328Z,99.99
2023-01-30T04:47:28.803Z,99.99
2023-01-30T04:48:01.251Z,99.99
2023-01-30T04:48:33.718Z,99.99
2023-01-30T04:49:06.172Z,99.99
2023-01-30T04:49:38.637Z,99.99
2023-01-30T04:50:11.112Z,99.99
2023-01-30T04:50:43.655Z,99.99
2023-01-30T04:51:16.117Z,99.99
2023-01-30T04:51:48.673Z,99.99
2023-01-30T04:52:21.115Z,99.99
2023-01-30T04:52:53.558Z,99.99
2023-01-30T04:53:26.001Z,99.99
2023-01-30T04:53:58.446Z,99.99
2023-01-30T04:54:30.927Z,99.99
2023-01-30T04:55:03.354Z,99.99
2023-01-30T04:55:35.789Z,99.99
2023-01-30T04:56:08.282Z,99.99
2023-01-30T04:56:40.728Z,99.99
2023-01-30T04:57:13.335Z,99.99
2023-01-30T04:57:45.795Z,99.99
2023-01-30T04:58:18.230Z,99.99
2023-01-30T04:58:50.725Z,99.99
2023-01-30T04:59:23.158Z,99.99
2023-01-30T04:59:55.683Z,99.99
2023-01-30T05:00:28.198Z,99.99
2023-01-30T05:01:00.721Z,99.99
2023-01-30T05:01:33.062Z,99.99
2023-01-30T05:02:05.535Z,99.99
2023-01-30T05:02:37.985Z,99.99
2023-01-30T05:03:10.492Z,99.99
2023-01-30T05:03:42.964Z,99.99
2023-01-30T05:04:15.430Z,99.99
2023-01-30T05:04:47.866Z,99.99
2023-01-30T05:05:20.565Z,99.99
2023-01-30T05:05:52.814Z,99.99
2023-01-30T05:06:25.252Z,99.99
2023-01-30T05:06:57.696Z,99.99
2023-01-30T05:07:30.151Z,99.99
2023-01-30T05:08:02.662Z,99.99
2023-01-30T05:08:35.130Z,99.99
2023-01-30T05:09:07.602Z,99.99
2023-01-30T05:09:40.080Z,99.99
2023-01-30T05:10:12.549Z,99.99
2023-01-30T05:10:45.020Z,99.99
2023-01-30T05:11:17.562Z,99.99
2023-01-30T05:11:50.012Z,99.99
2023-01-30T05:12:22.461Z,99.99
2023-01-30T05:12:54.884Z,99.99
2023-01-30T05:13:27.338Z,99.99
2023-01-30T05:13:59.783Z,99.99
2023-01-30T05:14:32.226Z,99.99
2023-01-30T05:15:04.709Z,99.99
2023-01-30T05:15:37.195Z,99.99
2023-01-30T05:16:09.774Z,99.99
2023-01-30T05:16:42.235Z,99.99
2023-01-30T05:17:14.745Z,99.99
2023-01-30T05:17:47.106Z,99.99
2023-01-30T05:18:19.606Z,99.99
2023-01-30T05:18:52.089Z,99.99
2023-01-30T05:19:24.610Z,99.99
2023-01-30T05:19:57.029Z,99.99
2023-01-30T05:20:29.459Z,99.99
2023-01-30T05:21:01.928Z,99.99
2023-01-30T05:21:34.385Z,99.99
2023-01-30T05:22:06.851Z,99.99
2023-01-30T05:22:39.271Z,99.99
2023-01-30T05:23:11.720Z,99.99
2023-01-30T05:23:44.220Z,99.99
2023-01-30T05:24:16.737Z,99.99
2023-01-30T05:24:49.257Z,99.99
2023-01-30T05:25:21.733Z,99.99
2023-01-30T05:25:54.222Z,99.99
2023-01-30T05:26:26.766Z,99.99
2023-01-30T05:26:59.241Z,99.99
2023-01-30T05:27:31.717Z,99.99
2023-01-30T05:28:04.207Z,99.99
2023-01-30T05:28:36.706Z,99.99
2023-01-30T05:29:09.183Z,99.99
2023-01-30T05:29:41.604Z,99.99
2023-01-30T05:30:14.049Z,99.99
2023-01-30T05:30:47.370Z,99.99
2023-01-30T05:31:18.998Z,99.99
2023-01-30T05:31:51.519Z,99.99
2023-01-30T05:32:23.908Z,99.99
2023-01-30T05:32:56.360Z,99.99
2023-01-30T05:33:28.867Z,99.99
2023-01-30T05:34:01.351Z,99.99
2023-01-30T05:34:33.838Z,99.99
2023-01-30T05:35:06.281Z,99.99
2023-01-30T05:35:38.740Z,99.99
2023-01-30T05:36:11.299Z,99.99
2023-01-30T05:36:43.849Z,99.99
2023-01-30T05:37:16.355Z,99.99
2023-01-30T05:37:48.802Z,99.99
2023-01-30T05:38:21.237Z,99.99
2023-01-30T05:38:53.731Z,99.99
2023-01-30T05:39:26.173Z,99.99
2023-01-30T05:39:58.674Z,99.99
2023-01-30T05:40:31.148Z,99.99
2023-01-30T05:41:03.776Z,99.99
2023-01-30T05:41:36.277Z,99.99
2023-01-30T05:42:08.756Z,99.99
2023-01-30T05:42:41.171Z,99.99
2023-01-30T05:43:13.779Z,99.99
2023-01-30T05:43:46.318Z,99.99
2023-01-30T05:44:18.914Z,99.99
2023-01-30T05:44:51.380Z,99.99
2023-01-30T05:45:23.898Z,99.99
2023-01-30T05:45:56.345Z,99.99
2023-01-30T05:46:28.794Z,99.99
2023-01-30T05:47:01.236Z,99.99
2023-01-30T05:47:33.730Z,99.99
2023-01-30T05:48:06.176Z,99.99
2023-01-30T05:48:38.637Z,99.99
2023-01-30T05:49:11.083Z,99.99
2023-01-30T05:49:43.745Z,99.99
2023-01-30T05:50:16.254Z,99.99
2023-01-30T05:50:48.675Z,99.99
2023-01-30T05:51:21.129Z,99.99
2023-01-30T05:51:53.596Z,99.99
2023-01-30T05:52:26.072Z,99.99
2023-01-30T05:52:58.550Z,99.99
2023-01-30T05:53:31.012Z,99.99
2023-01-30T05:54:03.450Z,99.99
2023-01-30T05:54:35.960Z,99.99
2023-01-30T05:55:08.432Z,99.99
2023-01-30T05:55:40.912Z,99.99
2023-01-30T05:56:13.402Z,99.99
2023-01-30T05:56:45.881Z,99.99
2023-01-30T05:57:18.329Z,99.99
2023-01-30T05:57:50.841Z,99.99
2023-01-30T05:58:23.366Z,99.99
2023-01-30T05:58:55.860Z,99.99
2023-01-30T05:59:28.319Z,99.99
2023-01-30T06:00:00.842Z,99.99
2023-01-30T06:00:33.371Z,99.99
2023-01-30T06:01:05.938Z,99.99
2023-01-30T06:01:38.515Z,99.99
2023-01-30T06:02:11.906Z,99.99
2023-01-30T06:02:43.601Z,99.99
2023-01-30T06:03:16.035Z,99.99
2023-01-30T06:03:48.570Z,99.99
2023-01-30T06:04:21.091Z,99.99
2023-01-30T06:04:53.504Z,99.99
2023-01-30T06:05:25.940Z,99.99
2023-01-30T06:05:58.448Z,99.99
2023-01-30T06:06:30.883Z,99.99
2023-01-30T06:07:03.488Z,99.99
2023-01-30T06:07:35.906Z,99.99
2023-01-30T06:08:16.176Z,99.99
2023-01-30T06:08:47.289Z,99.99
2023-01-30T06:09:19.738Z,99.99
2023-01-30T06:09:52.181Z,99.99
2023-01-30T06:10:24.663Z,99.99
2023-01-30T06:10:57.133Z,99.99
2023-01-30T06:11:29.609Z,99.99
2023-01-30T06:12:02.016Z,99.99
2023-01-30T06:12:34.597Z,99.99
2023-01-30T06:13:07.029Z,99.99
2023-01-30T06:13:39.537Z,99.99
2023-01-30T06:14:11.961Z,99.99
2023-01-30T06:14:44.439Z,99.99
2023-01-30T06:15:17.234Z,99.99
2023-01-30T06:15:49.523Z,99.99
2023-01-30T06:16:22.034Z,99.99
2023-01-30T06:16:54.466Z,99.99
2023-01-30T06:17:29.068Z,99.99
2023-01-30T06:17:59.416Z,99.99
2023-01-30T06:18:31.856Z,99.99
2023-01-30T06:19:04.418Z,99.99
2023-01-30T06:19:36.893Z,99.99
2023-01-30T06:20:09.393Z,99.99
2023-01-30T06:20:41.850Z,99.99
2023-01-30T06:21:14.314Z,99.99
2023-01-30T06:21:46.823Z,99.99
2023-01-30T06:22:19.268Z,99.99
2023-01-30T06:22:51.773Z,99.99
2023-01-30T06:23:24.536Z,99.99
2023-01-30T06:23:56.982Z,99.99
2023-01-30T06:24:29.488Z,99.99
2023-01-30T06:25:02.259Z,99.99
2023-01-30T06:25:39.679Z,99.99
2023-01-30T06:26:27.453Z,99.99
2023-01-30T06:26:59.993Z,99.99
2023-01-30T06:27:33.243Z,99.99
2023-01-30T06:28:06.939Z,99.99
2023-01-30T06:28:41.048Z,99.99
2023-01-30T06:29:22.029Z,99.99
2023-01-30T06:29:54.541Z,99.99
2023-01-30T06:30:27.039Z,99.99
2023-01-30T06:30:59.559Z,99.99
2023-01-30T06:31:32.027Z,99.99
2023-01-30T06:32:04.425Z,99.99
2023-01-30T06:32:36.896Z,99.99
2023-01-30T06:33:09.364Z,99.99
2023-01-30T06:33:41.813Z,99.99
2023-01-30T06:34:14.298Z,99.99
2023-01-30T06:34:46.753Z,99.99
2023-01-30T06:35:19.513Z,99.99
2023-01-30T06:35:51.728Z,99.99
2023-01-30T06:36:24.165Z,99.99
2023-01-30T06:36:56.623Z,99.99
2023-01-30T06:37:29.092Z,99.99
2023-01-30T06:38:01.533Z,99.99
2023-01-30T06:38:34.002Z,99.99
2023-01-30T06:39:06.478Z,99.99
2023-01-30T06:39:39.000Z,99.99
2023-01-30T06:40:11.444Z,99.99
2023-01-30T06:42:29.896Z,99.99
2023-01-30T06:43:02.359Z,99.99
2023-01-30T06:43:34.865Z,99.99
2023-01-30T06:44:07.302Z,99.99
2023-01-30T06:44:39.737Z,99.99
2023-01-30T06:45:12.163Z,99.99
2023-01-30T06:45:44.649Z,99.99
2023-01-30T06:46:17.596Z,99.99
2023-01-30T06:46:50.041Z,99.99
2023-01-30T06:47:22.485Z,99.99
2023-01-30T06:47:54.968Z,99.99
2023-01-30T06:48:27.436Z,99.99
2023-01-30T06:48:59.879Z,99.99
2023-01-30T06:49:32.452Z,99.99
2023-01-30T06:50:04.887Z,99.99
2023-01-30T06:50:37.372Z,99.99
2023-01-30T06:51:10.387Z,99.99
2023-01-30T06:51:43.038Z,99.99
2023-01-30T06:52:15.564Z,99.99
2023-01-30T06:52:49.384Z,99.99
2023-01-30T06:53:21.839Z,99.99
2023-01-30T06:53:54.868Z,99.99
2023-01-30T06:54:27.356Z,99.99
2023-01-30T06:54:59.824Z,99.99
2023-01-30T06:55:32.294Z,99.99
2023-01-30T06:56:04.821Z,99.99
2023-01-30T06:56:37.286Z,99.99
2023-01-30T06:57:09.705Z,99.99
2023-01-30T06:57:42.153Z,99.99
2023-01-30T06:58:14.731Z,99.99
2023-01-30T06:58:47.166Z,99.99
2023-01-30T06:59:19.697Z,99.99
2023-01-30T06:59:52.171Z,99.99
2023-01-30T07:00:24.673Z,99.99